Time;durP1;ratioP1;P1;durP2;ratioP2;P2;SDS_P1;SDS_P2;PMS_P1;PMS_P2;Temp;Humidity;BMP_temperature;BMP_pressure;BME280_temperature;BME280_humidity;BME280_pressure;Samples;Min_cycle;Max_cycle;Signal;HPM_P1;HPM_P2
2021/10/26 00:01:20;;;;;;;19.60;12.63;;;;;;;10.35;77.06;100194.63;5053553;28;20500;-63
2021/10/26 00:04:07;;;;;;;18.83;12.75;;;;;;;10.36;77.41;100201.56;5052972;28;20047;-63
2021/10/26 00:06:51;;;;;;;18.38;11.25;;;;;;;10.34;77.25;100192.91;5052817;28;20420;-63
2021/10/26 00:09:35;;;;;;;17.52;10.85;;;;;;;10.34;77.19;100202.38;5052750;28;20467;-63
2021/10/26 00:12:19;;;;;;;18.55;11.52;;;;;;;10.34;77.18;100202.38;5053234;28;20083;-63
2021/10/26 00:15:04;;;;;;;15.02;11.85;;;;;;;10.36;77.08;100200.69;5053433;28;20472;-63
2021/10/26 00:17:51;;;;;;;20.75;11.77;;;;;;;10.35;77.23;100207.59;5052065;28;20080;-63
2021/10/26 00:20:35;;;;;;;20.38;11.35;;;;;;;10.36;77.15;100201.56;5053222;28;20160;-63
2021/10/26 00:23:19;;;;;;;21.98;12.40;;;;;;;10.36;77.11;100209.34;5053077;28;20566;-63
2021/10/26 00:26:04;;;;;;;22.15;12.27;;;;;;;10.36;77.23;100214.50;5053024;28;20055;-63
2021/10/26 00:28:48;;;;;;;20.33;12.45;;;;;;;10.36;77.32;100211.06;5053222;28;20048;-63
2021/10/26 00:31:32;;;;;;;19.48;12.60;;;;;;;10.37;77.39;100218.00;5052311;28;20043;-63
2021/10/26 00:34:17;;;;;;;22.45;12.32;;;;;;;10.37;77.34;100212.81;5052718;28;20111;-63
2021/10/26 00:37:01;;;;;;;;;;;;;;;10.36;77.22;100213.66;5053296;28;20082;-63
2021/10/26 00:39:45;;;;;;;23.95;12.25;;;;;;;10.35;77.38;100223.13;5053471;28;20295;-63
2021/10/26 00:42:29;;;;;;;18.77;12.85;;;;;;;10.35;77.38;100217.94;5052922;28;20066;-63
2021/10/26 00:45:13;;;;;;;19.60;11.98;;;;;;;10.36;77.46;100221.44;5053441;28;20518;-63
2021/10/26 00:47:57;;;;;;;18.90;12.10;;;;;;;10.35;77.49;100222.28;5052395;28;20048;-63
2021/10/26 00:50:41;;;;;;;18.60;11.95;;;;;;;10.35;77.31;100217.09;5051838;28;20052;-63
2021/10/26 00:53:26;;;;;;;24.55;13.65;;;;;;;10.35;77.54;100217.94;5051965;28;20048;-63
2021/10/26 00:56:10;;;;;;;18.15;10.27;;;;;;;10.38;77.07;100227.56;5053309;28;20079;-63
2021/10/26 00:58:53;;;;;;;14.30;10.40;;;;;;;10.38;77.21;100221.44;5052552;28;20098;-63
2021/10/26 01:01:38;;;;;;;19.20;11.85;;;;;;;10.39;77.40;100223.22;5052897;28;20067;-64
2021/10/26 01:04:22;;;;;;;17.58;11.90;;;;;;;10.38;77.01;100234.41;5052939;28;20122;-61
2021/10/26 01:07:06;;;;;;;18.10;11.15;;;;;;;10.39;77.36;100231.00;5052235;28;20079;-63
2021/10/26 01:09:50;;;;;;;;;;;;;;;10.38;77.21;100237.91;5052001;28;20534;-64
2021/10/26 01:12:36;;;;;;;14.23;10.02;;;;;;;10.36;77.38;100237.84;5052695;28;19978;-64
2021/10/26 01:15:20;;;;;;;19.65;11.70;;;;;;;10.38;77.24;100237.00;5051708;28;20095;-62
2021/10/26 01:18:07;;;;;;;18.27;12.55;;;;;;;10.39;77.63;100246.53;5053006;28;20067;-62
2021/10/26 01:20:54;;;;;;;20.33;12.27;;;;;;;10.38;77.33;100245.69;5056359;28;20094;-63
2021/10/26 01:23:39;;;;;;;17.65;10.63;;;;;;;10.40;77.75;100245.69;5055064;28;20126;-63
2021/10/26 01:26:25;;;;;;;16.08;11.65;;;;;;;10.38;77.29;100245.69;5056115;28;20055;-62
2021/10/26 01:29:09;;;;;;;14.88;11.57;;;;;;;10.39;77.29;100250.03;5055141;28;20043;-61
2021/10/26 01:31:53;;;;;;;18.83;10.73;;;;;;;10.41;77.28;100244.88;5055538;28;20066;-61
2021/10/26 01:34:38;;;;;;;16.08;11.10;;;;;;;10.40;77.24;100248.28;5055928;28;20080;-62
2021/10/26 01:37:22;;;;;;;16.67;10.95;;;;;;;10.41;77.74;100247.47;5055142;28;20083;-61
2021/10/26 01:40:06;;;;;;;20.23;11.57;;;;;;;10.41;77.45;100242.28;5055869;28;20090;-62
2021/10/26 01:42:51;;;;;;;15.85;10.85;;;;;;;10.43;77.46;100248.38;5054530;28;20099;-63
2021/10/26 01:45:35;;;;;;;15.52;11.00;;;;;;;10.43;77.47;100251.81;5056044;28;20060;-63
2021/10/26 01:48:19;;;;;;;15.90;10.40;;;;;;;10.42;77.40;100244.03;5056061;28;20052;-63
2021/10/26 01:51:03;;;;;;;14.05;10.18;;;;;;;10.43;77.66;100251.81;5055616;28;20067;-63
2021/10/26 01:53:47;;;;;;;19.88;11.85;;;;;;;10.44;77.64;100250.97;5055001;28;20107;-63
2021/10/26 01:56:31;;;;;;;13.48;10.30;;;;;;;10.43;77.65;100251.81;5055063;28;20476;-63
2021/10/26 01:59:16;;;;;;;15.48;11.05;;;;;;;10.43;77.48;100249.22;5054594;28;20080;-63
2021/10/26 02:02:00;;;;;;;15.65;10.63;;;;;;;10.44;77.35;100253.56;5055390;28;20118;-63
2021/10/26 02:04:44;;;;;;;16.40;10.70;;;;;;;10.42;77.19;100252.69;5054656;28;20566;-63
2021/10/26 02:07:28;;;;;;;13.80;9.98;;;;;;;10.44;77.69;100250.13;5054341;28;20060;-63
2021/10/26 02:10:13;;;;;;;16.10;10.02;;;;;;;10.42;77.50;100238.84;5055245;28;20499;-63
2021/10/26 02:12:57;;;;;;;14.50;11.18;;;;;;;10.41;77.49;100240.56;5054514;28;20554;-62
2021/10/26 02:15:41;;;;;;;17.13;10.52;;;;;;;10.40;77.71;100238.81;5055713;28;20512;-62
2021/10/26 02:18:26;;;;;;;;;;;;;;;10.42;77.57;100233.66;5055373;28;20083;-63
2021/10/26 02:21:11;;;;;;;19.95;10.98;;;;;;;10.40;77.58;100241.41;5054645;28;19955;-63
2021/10/26 02:23:55;;;;;;;;;;;;;;;10.40;77.91;100235.34;5055293;28;20590;-61
2021/10/26 02:26:41;;;;;;;14.30;9.95;;;;;;;10.38;77.81;100244.75;5055257;28;19919;-64
2021/10/26 02:29:26;;;;;;;15.23;10.52;;;;;;;10.38;77.80;100240.50;5054946;28;20513;-63
2021/10/26 02:32:11;;;;;;;15.15;10.27;;;;;;;10.38;78.05;100235.31;5055220;28;20098;-61
2021/10/26 02:34:55;;;;;;;16.13;10.23;;;;;;;10.37;77.82;100236.13;5053858;28;20075;-64
2021/10/26 02:37:39;;;;;;;14.40;10.45;;;;;;;10.37;77.96;100236.13;5055088;28;20048;-62
2021/10/26 02:40:23;;;;;;;17.83;10.88;;;;;;;10.37;78.02;100238.72;5055099;28;20052;-63
2021/10/26 02:43:07;;;;;;;;;;;;;;;10.35;77.95;100238.66;5055174;28;20464;-64
2021/10/26 02:45:51;;;;;;;17.40;9.98;;;;;;;10.34;78.16;100239.53;5055078;28;20008;-64
2021/10/26 02:48:38;;;;;;;14.43;10.13;;;;;;;10.34;78.23;100241.25;5054650;28;20431;-63
2021/10/26 02:51:22;;;;;;;19.05;10.60;;;;;;;10.34;78.06;100244.72;5053604;28;20064;-62
2021/10/26 02:54:06;;;;;;;20.80;11.38;;;;;;;10.34;77.93;100239.53;5053683;28;20098;-61
2021/10/26 02:56:50;;;;;;;17.45;10.73;;;;;;;10.33;78.06;100237.78;5053706;28;20051;-62
2021/10/26 02:59:34;;;;;;;14.75;10.15;;;;;;;10.33;78.27;100236.91;5053585;28;20087;-61
2021/10/26 03:02:18;;;;;;;11.35;9.52;;;;;;;10.32;78.23;100242.94;5054633;28;20048;-63
2021/10/26 03:05:02;;;;;;;16.80;10.25;;;;;;;10.32;78.00;100232.56;5054688;28;20116;-61
2021/10/26 03:07:46;;;;;;;;;;;;;;;10.31;78.20;100239.47;5053978;28;20464;-61
2021/10/26 03:10:30;;;;;;;17.05;10.40;;;;;;;10.29;78.26;100241.16;5053733;28;19923;-62
2021/10/26 03:13:15;;;;;;;;;;;;;;;10.29;78.20;100246.34;5053408;28;20067;-63
2021/10/26 03:15:59;;;;;;;14.38;10.32;;;;;;;10.28;78.24;100246.28;5054351;28;19942;-63
2021/10/26 03:18:43;;;;;;;16.25;9.80;;;;;;;10.27;78.25;100245.44;5054127;28;20412;-63
2021/10/26 03:21:27;;;;;;;19.90;10.45;;;;;;;10.27;78.33;100250.63;5054149;28;20051;-63
2021/10/26 03:24:11;;;;;;;12.95;10.82;;;;;;;10.26;78.26;100251.44;5053101;28;20077;-63
2021/10/26 03:26:55;;;;;;;18.48;11.18;;;;;;;10.26;78.25;100248.88;5053434;28;20044;-63
2021/10/26 03:29:39;;;;;;;;;;;;;;;10.25;78.20;100254.88;5053898;28;20546;-63
2021/10/26 03:32:23;;;;;;;20.10;11.60;;;;;;;10.26;78.24;100260.94;5053813;28;19983;-63
2021/10/26 03:35:08;;;;;;;;;;;;;;;10.25;78.21;100254.03;5053854;28;20048;-63
2021/10/26 03:37:52;;;;;;;18.20;10.13;;;;;;;10.26;78.31;100263.53;5052970;28;19962;-63
2021/10/26 03:40:36;;;;;;;13.75;10.55;;;;;;;10.26;78.17;100255.78;5053701;28;20055;-63
2021/10/26 03:43:20;;;;;;;16.10;10.63;;;;;;;10.25;78.30;100266.97;5052740;28;20047;-63
2021/10/26 03:46:04;;;;;;;17.13;10.48;;;;;;;10.26;78.57;100272.19;5052655;28;20067;-63
2021/10/26 03:48:48;;;;;;;;;;;;;;;10.24;78.18;100268.69;5054136;28;20094;-63
2021/10/26 03:51:32;;;;;;;16.38;9.25;;;;;;;10.24;78.47;100266.09;5053720;28;20395;-63
2021/10/26 03:54:16;;;;;;;;;;;;;;;10.23;78.54;100266.94;5054107;28;20183;-63
2021/10/26 03:57:00;;;;;;;16.77;10.40;;;;;;;10.23;78.21;100266.06;5052799;28;20279;-63
2021/10/26 03:59:44;;;;;;;;;;;;;;;10.23;78.40;100266.06;5054106;28;20044;-63
2021/10/26 04:02:30;;;;;;;15.98;10.02;;;;;;;10.22;78.29;100280.72;5053585;28;20000;-62
2021/10/26 04:05:26;;;;;;;17.35;10.05;;;;;;;10.23;78.31;100273.84;5053739;28;20052;-63
2021/10/26 04:11:21;;;;;;;16.67;10.68;;;;;;;10.24;78.36;100278.19;5053639;28;20175;-63
2021/10/26 04:14:06;;;;;;;19.10;10.50;;;;;;;10.23;78.73;100279.00;5052758;28;20115;-63
2021/10/26 04:16:50;;;;;;;16.25;10.73;;;;;;;10.22;78.72;100283.31;5052135;28;20059;-63
2021/10/26 04:19:34;;;;;;;18.33;10.32;;;;;;;10.23;78.60;100282.47;5052971;28;20099;-63
2021/10/26 04:22:20;;;;;;;15.45;9.63;;;;;;;10.24;78.36;100284.22;5053110;28;20068;-63
2021/10/26 04:25:07;;;;;;;15.90;10.65;;;;;;;10.24;78.47;100286.81;5053372;28;20052;-63
2021/10/26 04:27:52;;;;;;;17.02;9.85;;;;;;;10.23;78.59;100290.22;5051927;28;20044;-63
2021/10/26 04:30:37;;;;;;;18.52;9.30;;;;;;;10.22;78.36;100285.91;5053338;28;20115;-63
2021/10/26 04:33:21;;;;;;;16.30;11.32;;;;;;;10.24;79.02;100292.00;5052424;28;20102;-63
2021/10/26 04:36:05;;;;;;;14.63;9.10;;;;;;;10.24;78.34;100284.22;5053480;28;20498;-63
2021/10/26 04:38:49;;;;;;;16.20;9.45;;;;;;;10.24;78.55;100281.63;5053450;28;20040;-63
2021/10/26 04:41:36;;;;;;;12.90;9.60;;;;;;;10.24;78.63;100283.34;5051974;28;20099;-63
2021/10/26 04:44:20;;;;;;;14.73;8.65;;;;;;;10.24;78.37;100284.22;5053075;28;20044;-63
2021/10/26 04:47:05;;;;;;;12.73;8.40;;;;;;;10.24;78.36;100292.00;5052821;28;20052;-63
2021/10/26 04:49:49;;;;;;;16.08;8.52;;;;;;;10.24;78.45;100298.91;5052176;28;20577;-63
2021/10/26 04:52:36;;;;;;;;;;;;;;;10.23;78.51;100305.78;5053220;28;20087;-63
2021/10/26 04:55:21;;;;;;;13.07;8.55;;;;;;;10.21;78.45;100302.28;5055012;28;19967;-63
2021/10/26 04:58:05;;;;;;;13.75;9.07;;;;;;;10.20;78.10;100306.59;5056433;28;20055;-63
2021/10/26 05:00:49;;;;;;;;;;;;;;;10.19;78.58;100309.16;5056869;28;20040;-63
2021/10/26 05:03:33;;;;;;;14.45;9.05;;;;;;;10.18;78.51;100305.69;5056205;28;19924;-63
2021/10/26 05:06:17;;;;;;;9.65;7.30;;;;;;;10.19;78.56;100315.22;5057043;28;20070;-63
2021/10/26 05:09:03;;;;;;;;;;;;;;;10.18;78.32;100312.59;5056898;28;20110;-63
2021/10/26 05:11:47;;;;;;;12.95;8.68;;;;;;;10.16;78.36;100314.28;5056265;28;20023;-63
2021/10/26 05:14:31;;;;;;;10.48;8.35;;;;;;;10.17;78.83;100316.03;5056593;28;20047;-63
2021/10/26 05:17:21;;;;;;;12.73;8.68;;;;;;;10.15;78.55;100310.78;5056194;28;20071;-63
2021/10/26 05:20:06;;;;;;;13.07;8.45;;;;;;;10.15;78.32;100308.19;5055773;28;20099;-62
2021/10/26 05:22:52;;;;;;;10.40;7.35;;;;;;;10.16;78.72;100309.94;5055913;28;20634;-63
2021/10/26 05:25:36;;;;;;;12.27;8.25;;;;;;;10.15;78.47;100313.38;5055556;28;20052;-63
2021/10/26 05:28:20;;;;;;;14.65;8.75;;;;;;;10.15;78.70;100320.28;5056245;28;20538;-63
2021/10/26 05:31:04;;;;;;;11.93;8.27;;;;;;;10.16;78.79;100316.88;5041367;28;20048;-63
2021/10/26 05:33:48;;;;;;;14.50;9.35;;;;;;;10.15;78.52;100330.66;5056352;28;20076;-63
2021/10/26 05:36:33;;;;;;;13.60;9.25;;;;;;;10.15;78.45;100322.88;5056380;28;20072;-63
2021/10/26 05:39:18;;;;;;;15.50;10.00;;;;;;;10.15;78.47;100326.34;5055354;28;20055;-62
2021/10/26 05:42:04;;;;;;;16.70;9.10;;;;;;;10.16;78.66;100322.03;5056346;28;20098;-63
2021/10/26 05:44:48;;;;;;;14.50;8.68;;;;;;;10.16;78.80;100324.63;5056200;28;20515;-63
2021/10/26 05:47:32;;;;;;;;;;;;;;;10.15;78.44;100330.66;5055939;28;20052;-63
2021/10/26 05:50:16;;;;;;;13.82;9.38;;;;;;;10.15;78.77;100323.75;5055873;28;19971;-63
2021/10/26 05:53:03;;;;;;;20.02;9.02;;;;;;;10.15;78.58;100328.06;5055777;28;20044;-63
2021/10/26 05:55:47;;;;;;;13.77;8.23;;;;;;;10.14;78.83;100327.16;5056070;28;20454;-63
2021/10/26 05:58:31;;;;;;;14.50;8.70;;;;;;;10.15;78.54;100326.34;5055971;28;20084;-63
2021/10/26 06:01:15;;;;;;;14.93;9.25;;;;;;;10.14;78.49;100316.81;5055189;28;20082;-63
2021/10/26 06:04:01;;;;;;;17.95;9.40;;;;;;;10.14;78.55;100314.22;5055894;28;20060;-63
2021/10/26 06:06:46;;;;;;;11.93;7.95;;;;;;;10.15;78.53;100325.47;5055555;28;20106;-62
2021/10/26 06:09:33;;;;;;;;;;;;;;;10.15;78.52;100341.00;5056252;28;20048;-63
2021/10/26 06:12:22;;;;;;;13.85;8.25;;;;;;;10.13;78.82;100343.53;5055548;28;20276;-63
2021/10/26 06:15:07;;;;;;;13.23;7.40;;;;;;;10.14;78.67;100353.06;5055705;28;20079;-63
2021/10/26 06:17:51;;;;;;;17.58;7.57;;;;;;;10.15;78.79;100356.56;5054577;28;20075;-63
2021/10/26 06:20:35;;;;;;;15.23;7.05;;;;;;;10.15;78.81;100354.81;5054205;28;20415;-63
2021/10/26 06:23:19;;;;;;;;;;;;;;;10.14;78.72;100357.38;5054936;28;20134;-63
2021/10/26 06:26:03;;;;;;;19.65;7.72;;;;;;;10.14;78.66;100359.97;5055592;28;19935;-63
2021/10/26 06:28:48;;;;;;;15.50;7.28;;;;;;;10.13;78.58;100372.03;5055167;28;20048;-63
2021/10/26 06:31:32;;;;;;;14.88;7.32;;;;;;;10.14;78.78;100370.34;5054591;28;20503;-62
2021/10/26 06:34:16;;;;;;;10.55;7.45;;;;;;;10.15;78.69;100382.44;5054987;28;20110;-63
2021/10/26 06:37:00;;;;;;;13.15;7.18;;;;;;;10.14;78.82;100376.38;5055053;28;20144;-63
2021/10/26 06:39:45;;;;;;;14.73;7.05;;;;;;;10.14;78.50;100389.31;5054373;28;20128;-63
2021/10/26 06:42:35;;;;;;;;;;;;;;;10.15;78.54;100392.81;5055077;28;20067;-63
2021/10/26 06:45:19;;;;;;;15.35;8.07;;;;;;;10.14;78.90;100401.41;5054308;28;20016;-63
2021/10/26 06:48:03;;;;;;;14.15;6.70;;;;;;;10.15;78.66;100393.66;5054788;28;20055;-63
2021/10/26 06:50:50;;;;;;;;;;;;;;;10.15;78.82;100405.75;5054162;28;20056;-63
2021/10/26 06:53:38;;;;;;;12.50;7.20;;;;;;;10.14;78.72;100407.47;5054915;28;19935;-63
2021/10/26 06:56:27;;;;;;;14.10;8.13;;;;;;;10.14;78.81;100410.06;5053550;28;20048;-63
2021/10/26 06:59:11;;;;;;;13.60;8.10;;;;;;;10.15;78.64;100408.34;5053947;28;20063;-63
2021/10/26 07:01:56;;;;;;;14.60;7.95;;;;;;;10.16;78.71;100412.69;5054182;28;20546;-63
2021/10/26 07:04:40;;;;;;;16.83;8.27;;;;;;;10.15;79.04;100418.72;5054788;28;20103;-63
2021/10/26 07:07:24;;;;;;;18.65;7.75;;;;;;;10.17;78.84;100417.03;5054474;28;20080;-63
2021/10/26 07:10:08;;;;;;;18.77;8.43;;;;;;;10.17;79.08;100422.22;5054152;28;20099;-63
2021/10/26 07:12:54;;;;;;;16.67;8.60;;;;;;;10.17;78.93;100412.72;5053842;28;20574;-63
2021/10/26 07:15:38;;;;;;;12.52;7.15;;;;;;;10.18;79.02;100414.47;5052776;28;20043;-63
2021/10/26 07:18:22;;;;;;;12.52;7.95;;;;;;;10.18;78.98;100413.63;5053817;28;20052;-63
2021/10/26 07:21:06;;;;;;;12.57;8.13;;;;;;;10.19;78.63;100412.78;5054410;28;20120;-63
2021/10/26 07:23:50;;;;;;;17.10;8.35;;;;;;;10.18;78.63;100414.47;5053869;28;20052;-63
2021/10/26 07:26:34;;;;;;;17.33;8.23;;;;;;;10.19;79.09;100417.94;5054032;28;20091;-63
2021/10/26 07:29:18;;;;;;;;;;;;;;;10.18;78.91;100423.97;5053790;28;20052;-63
2021/10/26 07:32:02;;;;;;;10.98;7.88;;;;;;;10.18;78.78;100421.38;5053876;28;19947;-63
2021/10/26 07:34:47;;;;;;;15.63;7.72;;;;;;;10.18;79.02;100422.25;5054030;28;20070;-63
2021/10/26 07:37:38;;;;;;;12.20;7.47;;;;;;;10.18;79.00;100429.16;5053169;28;20172;-63
2021/10/26 07:40:22;;;;;;;13.00;8.23;;;;;;;10.19;78.73;100433.50;5052648;28;20106;-63
2021/10/26 07:43:11;;;;;;;11.18;7.70;;;;;;;10.20;79.30;100425.75;5053039;28;20490;-63
2021/10/26 07:45:57;;;;;;;15.68;8.10;;;;;;;10.21;78.83;100424.00;5052952;28;20538;-63
2021/10/26 07:48:41;;;;;;;15.07;7.32;;;;;;;10.21;79.02;100429.19;5053043;28;20087;-63
2021/10/26 07:51:25;;;;;;;17.95;8.07;;;;;;;10.23;78.70;100443.06;5053402;28;20048;-63
2021/10/26 07:54:09;;;;;;;13.63;7.68;;;;;;;10.24;78.68;100436.19;5052954;28;20098;-63
2021/10/26 07:56:53;;;;;;;21.05;8.60;;;;;;;10.25;79.26;100451.75;5053538;28;20047;-63
2021/10/26 07:59:37;;;;;;;17.73;8.18;;;;;;;10.25;79.13;100446.56;5052938;28;20052;-63
2021/10/26 08:02:22;;;;;;;15.07;6.97;;;;;;;10.27;78.88;100446.63;5053284;28;20064;-63
2021/10/26 08:05:06;;;;;;;20.90;7.63;;;;;;;10.29;79.12;100448.41;5052893;28;20078;-62
2021/10/26 08:07:50;;;;;;;;;;;;;;;10.28;79.03;100449.25;5053677;28;20079;-63
2021/10/26 08:10:34;;;;;;;17.85;7.13;;;;;;;10.27;78.73;100455.25;5053361;28;19923;-63
2021/10/26 08:13:18;;;;;;;18.17;7.47;;;;;;;10.29;79.00;100448.41;5052451;28;20072;-63
2021/10/26 08:16:01;;;;;;;11.35;6.25;;;;;;;10.29;78.92;100453.59;5052451;28;20048;-63
2021/10/26 08:18:45;;;;;;;10.23;6.50;;;;;;;10.30;79.03;100452.75;5053504;28;20106;-63
2021/10/26 08:21:29;;;;;;;16.35;7.43;;;;;;;10.34;78.81;100453.69;5053330;28;20064;-63
2021/10/26 08:24:15;;;;;;;13.10;6.22;;;;;;;10.35;79.00;100460.63;5052941;28;20465;-63
2021/10/26 08:27:00;;;;;;;13.57;7.75;;;;;;;10.36;78.93;100450.28;5052484;28;20412;-63
2021/10/26 08:30:11;;;;;;;14.73;6.15;;;;;;;10.39;78.81;100453.81;5057332;28;20052;-63
2021/10/26 08:33:16;;;;;;;10.65;6.55;;;;;;;10.40;79.06;100452.97;5056395;28;20120;-63
2021/10/26 08:36:00;;;;;;;11.50;6.18;;;;;;;10.41;79.07;100459.91;5057496;28;20079;-63
2021/10/26 08:38:44;;;;;;;11.57;6.15;;;;;;;10.41;78.64;100458.22;5057171;28;20044;-63
2021/10/26 08:41:29;;;;;;;11.80;5.95;;;;;;;10.43;78.99;100455.66;5057188;28;20610;-63
2021/10/26 08:44:17;;;;;;;11.00;5.38;;;;;;;10.43;78.93;100460.84;5057001;28;20175;-63
2021/10/26 08:47:02;;;;;;;10.75;4.97;;;;;;;10.44;78.64;100453.09;5056052;28;20048;-64
2021/10/26 08:49:49;;;;;;;7.25;4.80;;;;;;;10.46;78.94;100456.59;5055800;28;20581;-63
2021/10/26 08:52:33;;;;;;;12.35;5.47;;;;;;;10.46;78.58;100458.31;5056970;28;20511;-63
2021/10/26 08:55:18;;;;;;;8.32;5.80;;;;;;;10.46;79.00;100456.59;5055969;28;20056;-63
2021/10/26 08:58:06;;;;;;;;;;;;;;;10.45;78.52;100460.03;5057059;28;20123;-63
2021/10/26 09:00:51;;;;;;;11.07;5.18;;;;;;;10.44;78.79;100452.22;5055986;28;19919;-63
2021/10/26 09:03:37;;;;;;;9.52;5.63;;;;;;;10.45;78.91;100457.44;5056677;28;20048;-63
2021/10/26 09:06:25;;;;;;;12.85;4.80;;;;;;;10.46;78.50;100454.00;5056709;28;20048;-63
2021/10/26 09:09:19;;;;;;;9.35;5.50;;;;;;;10.48;78.75;100441.97;5056200;28;20067;-63
2021/10/26 09:18:12;;;;;;;14.32;6.43;;;;;;;10.51;78.62;100457.59;5056310;28;20044;-63
2021/10/26 09:20:56;;;;;;;9.98;5.80;;;;;;;10.54;78.86;100458.50;5055681;28;20114;-63
2021/10/26 09:23:47;;;;;;;;;;;;;;;10.53;78.48;100452.41;5056007;28;20068;-63
2021/10/26 09:26:51;;;;;;;10.65;5.68;;;;;;;10.55;78.63;100463.69;5055217;28;20386;-63
2021/10/26 09:29:36;;;;;;;10.60;5.10;;;;;;;10.57;78.84;100464.63;5055545;28;20126;-63
2021/10/26 09:32:34;;;;;;;9.40;4.65;;;;;;;10.57;78.34;100461.16;5056093;28;20044;-63
2021/10/26 09:35:19;;;;;;;8.63;5.00;;;;;;;10.60;78.32;100471.56;5055079;28;20131;-63
2021/10/26 09:38:03;;;;;;;11.88;5.55;;;;;;;10.61;78.66;100475.91;5055664;28;20044;-63
2021/10/26 09:40:47;;;;;;;10.90;5.80;;;;;;;10.62;78.83;100475.97;5055440;28;20091;-63
2021/10/26 09:43:31;;;;;;;10.10;5.20;;;;;;;10.63;78.11;100479.44;5055897;28;20044;-63
2021/10/26 09:46:23;;;;;;;12.43;4.47;;;;;;;10.64;78.21;100488.97;5054804;28;20056;-64
2021/10/26 09:49:32;;;;;;;14.52;4.85;;;;;;;10.64;78.38;100482.06;5055451;28;20039;-63
2021/10/26 09:52:29;;;;;;;8.75;5.20;;;;;;;10.64;78.40;100476.88;5055016;28;20109;-63
2021/10/26 09:55:20;;;;;;;16.02;5.10;;;;;;;10.64;78.34;100476.88;5055320;28;20040;-63
2021/10/26 09:58:13;;;;;;;7.97;4.45;;;;;;;10.64;78.64;100489.84;5054673;28;20412;-63
2021/10/26 10:01:09;;;;;;;8.23;4.97;;;;;;;10.66;78.22;100501.13;5055247;28;20099;-63
2021/10/26 10:04:06;;;;;;;9.68;4.38;;;;;;;10.68;78.15;100498.56;5054704;28;20051;-63
2021/10/26 10:06:51;;;;;;;9.90;4.93;;;;;;;10.67;78.58;100491.63;5055346;28;20048;-63
2021/10/26 10:09:35;;;;;;;;;;;;;;;10.69;78.20;100496.84;5055348;28;20156;-63
2021/10/26 10:12:20;;;;;;;7.13;4.78;;;;;;;10.68;78.51;100503.75;5055119;28;19923;-63
2021/10/26 10:15:06;;;;;;;14.00;5.20;;;;;;;10.70;78.29;100516.72;5055298;28;20047;-63
2021/10/26 10:17:50;;;;;;;11.68;4.95;;;;;;;10.70;78.48;100504.66;5054653;28;20048;-63
2021/10/26 10:20:35;;;;;;;7.85;6.05;;;;;;;10.71;78.73;100502.94;5055171;28;20462;-63
2021/10/26 10:23:20;;;;;;;12.35;5.22;;;;;;;10.71;78.49;100501.22;5054053;28;20546;-63
2021/10/26 10:26:05;;;;;;;7.18;4.00;;;;;;;10.72;78.32;100495.22;5054529;28;20519;-63
2021/10/26 10:28:49;;;;;;;;;;;;;;;10.73;78.22;100506.44;5054700;28;20123;-63
2021/10/26 10:31:36;;;;;;;7.97;4.82;;;;;;;10.76;78.28;100503.94;5054619;28;20414;-63
2021/10/26 10:34:22;;;;;;;12.68;5.32;;;;;;;10.77;78.13;100500.50;5055413;28;20530;-63
2021/10/26 10:37:06;;;;;;;12.45;5.10;;;;;;;10.79;78.53;100498.81;5054358;28;20055;-63
2021/10/26 10:39:54;;;;;;;;;;;;;;;10.79;78.18;100498.81;5054580;28;20047;-63
2021/10/26 10:42:51;;;;;;;12.00;4.97;;;;;;;10.82;78.28;100501.47;5055689;28;19959;-63
2021/10/26 10:45:42;;;;;;;7.40;4.18;;;;;;;10.84;78.08;100507.56;5054960;28;20511;-63
2021/10/26 10:48:28;;;;;;;8.40;3.88;;;;;;;10.86;78.33;100505.00;5053779;28;20094;-63
2021/10/26 10:51:13;;;;;;;10.48;4.20;;;;;;;10.88;78.28;100508.53;5052663;28;20086;-63
2021/10/26 10:53:57;;;;;;;;;;;;;;;10.87;78.07;100506.75;5054893;28;20075;-63
2021/10/26 10:56:41;;;;;;;10.20;4.43;;;;;;;10.87;78.35;100499.84;5053534;28;19982;-63
2021/10/26 10:59:43;;;;;;;10.38;4.57;;;;;;;10.89;78.20;100492.13;5054936;28;20478;-63
2021/10/26 11:02:58;;;;;;;11.98;3.55;;;;;;;10.90;78.08;100489.53;5053365;28;20515;-63
2021/10/26 11:05:42;;;;;;;11.77;4.85;;;;;;;10.92;78.47;100505.13;5053275;28;20121;-63
2021/10/26 11:08:50;;;;;;;8.88;4.53;;;;;;;10.93;77.83;100496.50;5054394;28;20044;-63
2021/10/26 11:12:06;;;;;;;8.27;4.65;;;;;;;10.94;78.13;100506.03;5040446;28;20055;-63
2021/10/26 11:14:54;;;;;;;7.32;4.07;;;;;;;10.94;78.03;100503.44;5053650;28;20098;-63
2021/10/26 11:17:40;;;;;;;9.13;4.43;;;;;;;10.95;78.42;100497.41;5053532;28;20051;-63
2021/10/26 11:20:27;;;;;;;8.00;4.57;;;;;;;10.96;78.02;100505.25;5053533;28;20404;-63
2021/10/26 11:23:15;;;;;;;6.30;3.92;;;;;;;10.98;78.19;100499.22;5054314;28;20048;-63
2021/10/26 11:26:12;;;;;;;10.23;4.70;;;;;;;10.99;78.30;100495.75;5052938;28;20072;-63
2021/10/26 11:28:59;;;;;;;10.93;3.85;;;;;;;10.98;78.08;100496.63;5054241;28;20056;-63
2021/10/26 11:31:49;;;;;;;10.40;4.35;;;;;;;10.99;78.32;100486.28;5053095;28;20477;-63
2021/10/26 11:34:33;;;;;;;6.63;3.70;;;;;;;11.01;77.91;100483.69;5052724;28;20120;-63
2021/10/26 11:37:20;;;;;;;7.72;3.97;;;;;;;11.03;78.19;100484.63;5053998;28;20626;-63
2021/10/26 11:40:06;;;;;;;7.75;3.55;;;;;;;11.04;78.08;100474.28;5053932;28;20052;-63
2021/10/26 11:42:50;;;;;;;8.93;3.80;;;;;;;11.07;78.02;100474.34;5052600;28;20106;-63
2021/10/26 11:45:34;;;;;;;8.27;3.67;;;;;;;11.10;78.11;100481.31;5053538;28;20120;-63
2021/10/26 11:48:46;;;;;;;9.05;4.18;;;;;;;11.11;78.23;100477.88;5053562;28;20594;-63
2021/10/26 11:51:43;;;;;;;8.10;4.18;;;;;;;11.13;77.96;100481.41;5053824;28;20044;-63
2021/10/26 11:54:28;;;;;;;10.88;3.95;;;;;;;11.13;78.33;100458.03;5052829;28;20056;-63
2021/10/26 11:57:13;;;;;;;7.88;3.25;;;;;;;11.15;78.04;100464.09;5052871;28;20515;-63
2021/10/26 12:00:04;;;;;;;7.35;3.88;;;;;;;11.16;77.82;100472.78;5052376;28;20103;-63
2021/10/26 12:02:48;;;;;;;11.10;3.53;;;;;;;11.16;78.14;100473.66;5052025;28;20060;-63
2021/10/26 12:05:33;;;;;;;;;;;;;;;11.16;78.27;100472.78;5053662;28;20052;-63
2021/10/26 12:08:23;;;;;;;5.55;3.38;;;;;;;11.17;78.14;100488.38;5053718;28;20355;-63
2021/10/26 12:11:08;;;;;;;6.47;3.05;;;;;;;11.18;78.16;100477.16;5052776;28;20052;-63
2021/10/26 12:14:12;;;;;;;10.77;3.60;;;;;;;11.20;77.98;100488.44;5053517;28;20098;-63
2021/10/26 12:17:24;;;;;;;8.50;3.20;;;;;;;11.20;77.55;100490.19;5052910;28;20048;-63
2021/10/26 12:20:20;;;;;;;7.10;2.83;;;;;;;11.19;78.02;100481.50;5052300;28;20107;-63
2021/10/26 12:23:05;;;;;;;8.98;4.28;;;;;;;11.19;77.99;100476.31;5052598;28;20405;-63
2021/10/26 12:25:51;;;;;;;4.95;3.05;;;;;;;11.19;78.06;100476.31;5052801;28;20107;-63
2021/10/26 12:28:36;;;;;;;8.18;3.22;;;;;;;11.19;77.90;100476.31;5053214;28;20412;-63
2021/10/26 12:31:24;;;;;;;9.85;3.10;;;;;;;11.19;78.18;100465.94;5053022;28;20044;-63
2021/10/26 12:34:08;;;;;;;5.72;3.35;;;;;;;11.20;77.87;100484.97;5052371;28;20052;-63
2021/10/26 12:36:52;;;;;;;17.40;3.47;;;;;;;11.19;78.14;100473.72;5053192;28;20055;-63
2021/10/26 12:39:36;;;;;;;5.35;2.80;;;;;;;11.19;77.40;100470.25;5052929;28;20048;-63
2021/10/26 12:42:39;;;;;;;6.07;3.20;;;;;;;11.18;77.51;100473.69;5052051;28;20408;-63
2021/10/26 12:45:33;;;;;;;8.63;3.67;;;;;;;11.17;77.85;100472.81;5052386;28;20400;-63
2021/10/26 12:48:17;;;;;;;11.48;3.78;;;;;;;11.17;77.75;100475.41;5052383;28;20558;-63
2021/10/26 12:51:03;;;;;;;11.63;3.42;;;;;;;11.16;77.89;100476.25;5053135;28;20048;-63
2021/10/26 12:53:47;;;;;;;8.50;3.10;;;;;;;11.16;77.82;100477.97;5052032;28;20098;-63
2021/10/26 12:56:32;;;;;;;5.57;3.03;;;;;;;11.16;77.82;100462.41;5053571;28;20507;-63
2021/10/26 12:59:17;;;;;;;11.02;3.78;;;;;;;11.17;77.53;100466.75;5052473;28;20254;-63
2021/10/26 13:02:05;;;;;;;7.90;3.28;;;;;;;11.17;77.94;100465.03;5052042;28;20060;-63